Time;durP1;ratioP1;P1;durP2;ratioP2;P2;SDS_P1;SDS_P2;PMS_P1;PMS_P2;Temp;Humidity;BMP_temperature;BMP_pressure;BME280_temperature;BME280_humidity;BME280_pressure;Samples;Min_cycle;Max_cycle;Signal;HPM_P1;HPM_P2
2023/10/28 00:00:29;;;;;;;11.50;3.70;;;;;;;16.67;74.68;97710.69;105956;1251;63690;-76
2023/10/28 00:02:56;;;;;;;10.80;4.10;;;;;;;16.66;74.85;97707.26;105799;1251;60238;-77
2023/10/28 00:05:24;;;;;;;10.00;4.00;;;;;;;16.64;75.13;97700.55;105999;1251;60469;-77
2023/10/28 00:07:51;;;;;;;15.60;4.00;;;;;;;16.63;75.39;97687.14;106013;1256;65493;-77
2023/10/28 00:10:18;;;;;;;10.10;3.80;;;;;;;16.60;75.66;97675.68;106014;1251;60523;-76
2023/10/28 00:12:45;;;;;;;11.70;3.80;;;;;;;16.59;75.96;97672.86;105926;1251;63790;-77
2023/10/28 00:15:13;;;;;;;9.90;3.80;;;;;;;16.57;76.18;97669.23;105928;1251;60442;-77
2023/10/28 00:17:40;;;;;;;10.30;3.90;;;;;;;16.55;76.47;97662.01;106130;1251;60447;-76
2023/10/28 00:20:08;;;;;;;9.10;4.20;;;;;;;16.54;76.68;97656.49;105835;1257;65268;-76
2023/10/28 00:22:35;;;;;;;13.60;4.50;;;;;;;16.54;76.88;97652.27;105843;1251;60547;-76
2023/10/28 00:25:02;;;;;;;15.00;4.30;;;;;;;16.55;76.95;97655.70;105803;1252;64193;-75
2023/10/28 00:27:30;;;;;;;11.10;4.60;;;;;;;16.54;77.07;97646.86;106059;1252;60505;-76
2023/10/28 00:29:56;;;;;;;12.10;4.00;;;;;;;16.56;77.17;97641.51;106080;1254;60552;-76
2023/10/28 00:32:23;;;;;;;10.70;4.20;;;;;;;16.57;77.25;97642.02;106028;1254;63962;-77
2023/10/28 00:34:51;;;;;;;19.50;4.40;;;;;;;16.57;77.27;97635.08;105940;1251;60462;-76
2023/10/28 00:37:17;;;;;;;8.00;3.40;;;;;;;16.57;77.38;97633.64;105873;1251;63949;-76
2023/10/28 00:39:46;;;;;;;16.90;4.50;;;;;;;16.57;77.54;97631.88;105908;1251;60617;-77
2023/10/28 00:42:13;;;;;;;14.40;4.70;;;;;;;16.57;77.58;97624.30;105974;1250;60498;-76
2023/10/28 00:44:41;;;;;;;17.20;4.80;;;;;;;16.57;77.66;97607.47;106023;1257;65216;-76
2023/10/28 00:47:07;;;;;;;17.00;5.00;;;;;;;16.56;77.88;97606.90;105953;1257;60570;-75
2023/10/28 00:49:34;;;;;;;12.60;4.40;;;;;;;16.56;77.99;97600.09;105968;1252;63906;-76
2023/10/28 00:52:01;;;;;;;12.70;4.40;;;;;;;16.57;77.98;97594.83;106035;1251;60346;-75
2023/10/28 00:54:28;;;;;;;10.00;4.10;;;;;;;16.58;78.09;97591.94;105984;1254;60549;-75
2023/10/28 00:56:55;;;;;;;14.20;4.30;;;;;;;16.60;78.10;97588.20;105929;1254;65336;-76
2023/10/28 00:59:21;;;;;;;12.50;3.80;;;;;;;16.61;78.21;97586.31;105905;1254;60615;-76
2023/10/28 01:01:48;;;;;;;15.80;4.50;;;;;;;16.61;78.28;97587.61;105970;1251;63949;-76
2023/10/28 01:04:15;;;;;;;15.50;4.70;;;;;;;16.64;78.38;97583.71;105809;1251;60354;-77
2023/10/28 01:06:42;;;;;;;13.10;4.40;;;;;;;16.68;78.25;97583.70;105835;1251;60469;-77
2023/10/28 01:09:09;;;;;;;13.80;4.90;;;;;;;16.70;78.23;97593.13;105854;1256;65219;-77
2023/10/28 01:11:39;;;;;;;14.20;4.90;;;;;;;16.71;78.12;97590.81;105891;1251;60559;-75
2023/10/28 01:14:07;;;;;;;15.10;4.60;;;;;;;16.72;78.04;97589.48;105999;1251;63916;-76
2023/10/28 01:16:36;;;;;;;13.50;4.40;;;;;;;16.72;78.08;97592.44;105802;1251;60493;-76
2023/10/28 01:19:02;;;;;;;12.40;4.50;;;;;;;16.74;78.12;97591.51;105986;1251;60488;-77
2023/10/28 01:21:29;;;;;;;13.70;4.40;;;;;;;16.75;78.14;97594.63;105994;1257;63745;-76
2023/10/28 01:23:56;;;;;;;13.60;4.70;;;;;;;16.77;78.11;97599.40;106019;1254;60500;-76
2023/10/28 01:26:23;;;;;;;16.70;4.80;;;;;;;16.77;78.05;97590.95;106014;1251;64035;-76
2023/10/28 01:28:50;;;;;;;14.10;4.60;;;;;;;16.77;77.96;97587.84;105806;1255;60414;-76
2023/10/28 01:31:17;;;;;;;18.10;5.00;;;;;;;16.75;77.91;97587.79;106041;1252;60532;-76
2023/10/28 01:33:44;;;;;;;15.40;4.60;;;;;;;16.72;77.87;97581.98;105931;1251;64962;-76
2023/10/28 01:36:10;;;;;;;12.70;4.60;;;;;;;16.71;77.95;97578.65;105897;1252;60522;-76
2023/10/28 01:38:38;;;;;;;15.90;4.60;;;;;;;16.68;78.09;97574.39;105872;1256;64018;-76
2023/10/28 01:41:05;;;;;;;11.60;4.50;;;;;;;16.67;78.17;97567.55;105854;1251;60417;-76
2023/10/28 01:43:32;;;;;;;14.40;5.00;;;;;;;16.66;78.17;97566.29;105912;1254;60545;-76
2023/10/28 01:45:58;;;;;;;14.90;5.00;;;;;;;16.66;78.27;97567.08;106021;1254;60354;-76
2023/10/28 01:48:24;;;;;;;11.50;4.60;;;;;;;16.66;78.38;97562.02;105906;1263;60895;-77
2023/10/28 01:50:51;;;;;;;14.20;5.10;;;;;;;16.67;78.44;97565.66;105920;1251;64134;-76
2023/10/28 01:53:18;;;;;;;14.30;5.20;;;;;;;16.67;78.49;97569.02;105956;1254;60446;-75
2023/10/28 01:55:45;;;;;;;10.70;4.80;;;;;;;16.67;78.43;97561.51;105989;1251;60561;-76
2023/10/28 01:58:11;;;;;;;16.00;5.30;;;;;;;16.67;78.50;97555.81;105809;1260;65180;-76
2023/10/28 02:00:38;;;;;;;17.10;4.80;;;;;;;16.68;78.35;97561.02;105740;1252;60460;-77
2023/10/28 02:03:08;;;;;;;17.90;5.00;;;;;;;16.68;78.42;97552.16;105906;1256;64117;-76
2023/10/28 02:05:36;;;;;;;13.10;5.00;;;;;;;16.68;78.38;97543.07;105983;1251;60421;-74
2023/10/28 02:08:03;;;;;;;18.70;4.90;;;;;;;16.69;78.35;97545.08;105783;1251;60651;-75
2023/10/28 02:10:30;;;;;;;15.20;4.60;;;;;;;16.70;78.30;97545.11;105967;1255;65676;-75
2023/10/28 02:12:57;;;;;;;12.70;5.00;;;;;;;16.71;78.39;97539.44;105879;1251;60923;-75
2023/10/28 02:15:24;;;;;;;17.20;5.40;;;;;;;16.72;78.42;97542.65;105975;1257;63963;-75
2023/10/28 02:17:50;;;;;;;13.50;5.10;;;;;;;16.74;78.40;97549.30;105814;1257;60441;-75
2023/10/28 02:20:17;;;;;;;17.20;5.10;;;;;;;16.76;78.39;97541.77;105914;1252;60450;-76
2023/10/28 02:22:44;;;;;;;16.70;5.10;;;;;;;16.78;78.17;97537.55;105842;1256;65143;-76
2023/10/28 02:25:11;;;;;;;12.10;4.80;;;;;;;16.80;78.07;97531.25;105864;1253;60555;-76
2023/10/28 02:27:38;;;;;;;16.00;5.00;;;;;;;16.81;77.80;97524.91;105785;1257;64127;-77
2023/10/28 02:30:07;;;;;;;19.30;5.10;;;;;;;16.83;77.62;97520.52;105917;1256;60536;-76
2023/10/28 02:32:35;;;;;;;15.80;4.60;;;;;;;16.85;77.42;97526.85;106041;1251;60459;-76
2023/10/28 02:35:03;;;;;;;13.70;4.80;;;;;;;16.85;77.22;97528.02;106090;1252;64007;-76
2023/10/28 02:37:30;;;;;;;15.00;5.00;;;;;;;16.86;77.08;97527.03;105950;1256;60437;-75
2023/10/28 02:39:56;;;;;;;14.60;4.40;;;;;;;16.86;76.94;97526.65;105994;1256;63823;-74
2023/10/28 02:42:23;;;;;;;13.20;4.20;;;;;;;16.86;76.63;97533.95;105804;1256;60434;-76
2023/10/28 02:44:50;;;;;;;13.60;4.20;;;;;;;16.87;76.42;97530.95;106031;1251;60549;-75
2023/10/28 02:47:17;;;;;;;15.60;4.30;;;;;;;16.89;76.12;97533.23;106090;1254;65104;-76
2023/10/28 02:49:43;;;;;;;12.70;3.90;;;;;;;16.91;75.86;97533.86;105980;1258;60541;-76
2023/10/28 02:52:11;;;;;;;14.40;4.00;;;;;;;16.92;75.59;97526.16;105979;1257;64007;-76
2023/10/28 02:54:37;;;;;;;16.20;3.70;;;;;;;16.93;75.22;97521.92;106099;1254;60354;-79
2023/10/28 02:57:04;;;;;;;11.50;3.30;;;;;;;16.93;74.83;97522.29;105993;1251;60459;-78
2023/10/28 02:59:30;;;;;;;12.30;3.20;;;;;;;16.94;74.33;97522.94;105919;1254;63629;-74
2023/10/28 03:01:57;;;;;;;9.30;3.40;;;;;;;16.94;73.81;97524.00;106015;1256;60586;-75
2023/10/28 03:04:24;;;;;;;8.90;3.10;;;;;;;16.94;73.26;97522.73;106063;1257;63776;-79
2023/10/28 03:06:51;;;;;;;10.70;3.20;;;;;;;16.93;72.97;97519.58;106066;1252;60558;-77
2023/10/28 03:09:18;;;;;;;11.60;3.20;;;;;;;16.92;72.46;97515.50;105972;1257;60469;-74
2023/10/28 03:11:45;;;;;;;9.60;3.20;;;;;;;16.91;72.11;97515.96;106052;1251;64048;-75
2023/10/28 03:14:12;;;;;;;8.90;2.70;;;;;;;16.91;71.76;97516.59;106024;1254;60459;-75
2023/10/28 03:16:39;;;;;;;11.40;3.20;;;;;;;16.90;71.42;97516.36;105959;1256;62535;-75
2023/10/28 03:19:05;;;;;;;7.10;2.60;;;;;;;16.90;70.94;97517.80;105934;1254;60514;-75
2023/10/28 03:21:32;;;;;;;5.70;2.40;;;;;;;16.89;70.45;97520.76;106182;1251;60394;-75
2023/10/28 03:23:59;;;;;;;7.50;2.60;;;;;;;16.90;70.09;97514.80;105954;1256;60642;-76
2023/10/28 03:26:26;;;;;;;7.30;2.60;;;;;;;16.90;69.70;97512.20;105926;1257;60523;-75
2023/10/28 03:28:53;;;;;;;5.50;2.40;;;;;;;16.88;69.39;97511.81;105925;1257;64091;-76
2023/10/28 03:31:19;;;;;;;7.60;2.30;;;;;;;16.86;69.02;97512.10;105982;1257;60496;-76
2023/10/28 03:33:48;;;;;;;8.20;2.10;;;;;;;16.84;68.37;97509.02;106031;1251;60462;-76
2023/10/28 03:36:15;;;;;;;7.50;2.40;;;;;;;16.85;67.80;97507.33;105885;1256;65195;-77
2023/10/28 03:38:42;;;;;;;5.20;1.70;;;;;;;16.88;67.49;97509.82;105800;1253;60571;-76
2023/10/28 03:41:09;;;;;;;4.10;2.10;;;;;;;16.90;67.00;97510.38;105779;1256;64018;-76
2023/10/28 03:43:37;;;;;;;5.30;1.90;;;;;;;16.90;66.87;97509.05;105814;1251;60520;-76
2023/10/28 03:46:04;;;;;;;4.70;2.10;;;;;;;16.87;66.82;97515.00;105951;1252;60539;-76
2023/10/28 03:48:31;;;;;;;6.30;2.10;;;;;;;16.82;66.68;97522.19;105724;1251;65214;-77
2023/10/28 03:51:04;;;;;;;5.60;1.70;;;;;;;16.77;66.56;97527.98;105896;1257;60408;-77
2023/10/28 03:53:30;;;;;;;6.70;2.10;;;;;;;16.74;66.45;97540.45;105967;1254;62460;-76
2023/10/28 03:55:57;;;;;;;5.60;1.90;;;;;;;16.73;66.26;97544.73;105896;1254;60543;-77
2023/10/28 03:58:24;;;;;;;4.90;1.70;;;;;;;16.70;65.67;97535.46;106039;1255;60322;-76
2023/10/28 04:00:53;;;;;;;6.10;1.70;;;;;;;16.72;65.38;97521.33;105933;1253;65028;-76
2023/10/28 04:03:21;;;;;;;2.70;1.60;;;;;;;16.73;65.07;97523.36;105972;1257;60481;-77
2023/10/28 04:05:48;;;;;;;3.00;1.50;;;;;;;16.71;64.45;97528.08;105923;1256;64104;-77
2023/10/28 04:08:16;;;;;;;6.70;1.60;;;;;;;16.69;63.33;97530.23;106077;1255;60440;-76
2023/10/28 04:10:42;;;;;;;3.50;1.30;;;;;;;16.70;62.74;97536.87;105850;1256;60466;-76
2023/10/28 04:13:12;;;;;;;4.20;1.20;;;;;;;16.70;62.63;97535.88;105804;1251;63733;-78
2023/10/28 04:15:39;;;;;;;2.80;0.90;;;;;;;16.66;60.56;97544.80;105907;1251;60529;-77
2023/10/28 04:18:06;;;;;;;2.50;1.00;;;;;;;16.69;59.60;97544.99;105982;1251;63799;-76
2023/10/28 04:20:34;;;;;;;4.30;0.80;;;;;;;16.71;59.06;97548.59;105866;1257;60565;-76
2023/10/28 04:23:01;;;;;;;2.20;0.70;;;;;;;16.70;58.23;97559.17;105969;1251;60555;-75
2023/10/28 04:25:28;;;;;;;1.80;0.60;;;;;;;16.70;57.83;97562.38;105917;1257;65190;-76
2023/10/28 04:27:55;;;;;;;1.80;0.80;;;;;;;16.69;57.64;97560.05;105933;1251;60529;-75
2023/10/28 04:30:22;;;;;;;3.00;0.80;;;;;;;16.65;57.37;97560.02;105945;1257;64168;-76
2023/10/28 04:32:48;;;;;;;4.50;0.90;;;;;;;16.61;57.12;97567.34;106022;1251;60545;-76
2023/10/28 04:35:15;;;;;;;1.30;0.60;;;;;;;16.56;56.75;97575.37;105979;1251;60520;-76
2023/10/28 04:37:55;;;;;;;4.10;0.60;;;;;;;16.52;56.06;97574.59;105997;1252;65015;-76
2023/10/28 04:40:22;;;;;;;3.70;0.60;;;;;;;16.49;55.62;97584.77;105926;1251;60478;-75
2023/10/28 04:42:49;;;;;;;3.30;0.90;;;;;;;16.44;55.42;97582.37;105938;1251;62759;-76
2023/10/28 04:45:16;;;;;;;3.60;0.60;;;;;;;16.39;55.38;97595.43;105912;1252;60529;-76
2023/10/28 04:47:42;;;;;;;2.80;0.50;;;;;;;16.33;54.99;97602.65;105906;1251;60494;-76
2023/10/28 04:50:09;;;;;;;1.70;0.60;;;;;;;16.28;55.00;97595.86;105926;1254;65062;-76
2023/10/28 04:52:36;;;;;;;3.80;0.70;;;;;;;16.23;55.15;97593.52;105910;1256;60459;-76
2023/10/28 04:55:03;;;;;;;5.00;0.50;;;;;;;16.18;55.35;97600.01;105991;1256;60398;-76
2023/10/28 04:57:29;;;;;;;2.10;0.30;;;;;;;16.13;55.37;97608.16;106021;1251;60350;-77
2023/10/28 04:59:56;;;;;;;3.10;0.20;;;;;;;16.05;54.80;97620.31;105972;1254;60457;-77
2023/10/28 05:02:24;;;;;;;1.30;0.50;;;;;;;15.99;54.32;97634.01;105697;1257;74225;-77
2023/10/28 05:04:51;;;;;;;2.30;0.40;;;;;;;15.96;54.24;97631.30;105746;1254;60549;-76
2023/10/28 05:07:18;;;;;;;2.40;0.40;;;;;;;15.89;53.72;97641.09;106159;1254;63822;-76
2023/10/28 05:09:45;;;;;;;1.90;0.50;;;;;;;15.80;53.48;97652.01;105949;1253;60469;-77
2023/10/28 05:12:12;;;;;;;0.60;0.40;;;;;;;15.74;53.43;97651.05;106050;1251;60642;-78
2023/10/28 05:14:39;;;;;;;2.20;0.50;;;;;;;15.70;53.52;97653.77;106119;1254;65108;-78
2023/10/28 05:17:05;;;;;;;1.90;0.40;;;;;;;15.66;53.89;97652.23;106006;1251;60553;-76
2023/10/28 05:19:32;;;;;;;3.00;0.60;;;;;;;15.64;54.17;97656.80;105991;1251;64056;-76
2023/10/28 05:22:02;;;;;;;3.20;0.60;;;;;;;15.62;54.25;97668.02;105860;1256;60538;-77
2023/10/28 05:24:30;;;;;;;6.10;0.60;;;;;;;15.61;53.93;97671.23;105992;1251;60421;-77
2023/10/28 05:26:59;;;;;;;0.80;0.40;;;;;;;15.60;53.71;97669.58;105901;1250;65115;-77
2023/10/28 05:29:26;;;;;;;2.20;0.50;;;;;;;15.58;53.31;97681.18;105951;1256;60455;-76
2023/10/28 05:31:56;;;;;;;1.50;0.40;;;;;;;15.54;52.82;97674.02;105974;1251;64094;-76
2023/10/28 05:34:23;;;;;;;0.70;0.50;;;;;;;15.51;52.87;97672.16;106062;1251;60357;-75
2023/10/28 05:36:50;;;;;;;2.40;0.60;;;;;;;15.47;52.88;97685.63;106146;1254;60435;-75
2023/10/28 05:39:22;;;;;;;2.90;0.50;;;;;;;15.44;53.10;97681.72;106017;1254;65024;-77
2023/10/28 05:41:49;;;;;;;2.10;0.50;;;;;;;15.41;52.85;97690.61;105862;1251;60520;-75
2023/10/28 05:44:17;;;;;;;1.60;0.50;;;;;;;15.39;52.93;97685.11;106110;1251;63808;-76
2023/10/28 05:46:44;;;;;;;3.80;0.50;;;;;;;15.36;52.98;97690.17;106092;1255;60423;-77
2023/10/28 05:49:12;;;;;;;1.80;0.40;;;;;;;15.31;52.82;97688.78;106020;1252;60482;-76
2023/10/28 05:51:39;;;;;;;0.70;0.40;;;;;;;15.25;52.76;97688.59;106037;1254;64915;-78
2023/10/28 05:54:06;;;;;;;1.00;0.60;;;;;;;15.20;52.67;97687.69;105695;1254;60556;-76
2023/10/28 05:56:33;;;;;;;2.10;0.40;;;;;;;15.18;52.59;97690.08;105918;1254;63876;-75
2023/10/28 05:59:00;;;;;;;1.00;0.40;;;;;;;15.16;52.46;97686.30;105900;1251;60472;-76
2023/10/28 06:01:27;;;;;;;2.20;0.50;;;;;;;15.15;52.36;97697.71;105925;1251;60427;-76
2023/10/28 06:03:54;;;;;;;1.40;0.50;;;;;;;15.17;52.55;97699.62;105843;1252;65136;-76
2023/10/28 06:06:21;;;;;;;0.60;0.40;;;;;;;15.18;52.44;97703.05;106021;1251;60501;-76
2023/10/28 06:08:47;;;;;;;1.30;0.40;;;;;;;15.19;52.48;97707.50;105909;1251;63789;-78
2023/10/28 06:11:14;;;;;;;0.70;0.50;;;;;;;15.19;52.59;97706.39;105845;1256;60440;-77
2023/10/28 06:13:41;;;;;;;3.10;0.50;;;;;;;15.16;52.45;97708.46;105908;1251;62040;-77
2023/10/28 06:16:07;;;;;;;1.80;0.60;;;;;;;15.15;52.78;97709.12;105976;1251;64953;-76
2023/10/28 06:18:34;;;;;;;0.90;0.60;;;;;;;15.12;52.94;97712.36;105843;1251;67678;-76
2023/10/28 06:21:01;;;;;;;1.70;0.30;;;;;;;15.13;52.97;97709.52;105914;1255;64224;-76
2023/10/28 06:23:28;;;;;;;3.90;0.30;;;;;;;15.14;52.92;97712.55;105916;1251;60554;-80
2023/10/28 06:25:55;;;;;;;1.30;0.50;;;;;;;15.15;52.79;97723.75;105872;1251;60469;-75
2023/10/28 06:28:22;;;;;;;1.90;0.50;;;;;;;15.15;52.48;97732.67;105974;1251;65189;-76
2023/10/28 06:30:49;;;;;;;2.00;0.50;;;;;;;15.17;52.66;97724.61;106056;1251;60444;-77
2023/10/28 06:33:17;;;;;;;3.20;0.40;;;;;;;15.19;52.77;97737.56;106053;1251;62543;-75
2023/10/28 06:35:44;;;;;;;1.20;0.50;;;;;;;15.20;52.66;97733.80;105957;1251;60407;-74
2023/10/28 06:38:11;;;;;;;0.60;0.40;;;;;;;15.18;52.66;97738.23;106043;1251;60520;-75
2023/10/28 06:40:38;;;;;;;0.90;0.50;;;;;;;15.17;52.90;97733.41;105908;1251;65150;-76
2023/10/28 06:43:05;;;;;;;1.80;0.50;;;;;;;15.16;52.92;97739.96;105939;1251;60555;-77
2023/10/28 06:45:31;;;;;;;2.00;0.50;;;;;;;15.13;52.52;97755.32;105806;1256;64163;-76
2023/10/28 06:47:58;;;;;;;2.90;0.60;;;;;;;15.12;52.70;97759.90;105909;1252;60461;-76
2023/10/28 06:50:25;;;;;;;0.50;0.30;;;;;;;15.12;52.81;97765.05;105987;1252;60450;-77
2023/10/28 06:52:52;;;;;;;3.00;0.40;;;;;;;15.11;52.46;97777.90;105946;1252;65207;-74
2023/10/28 06:55:19;;;;;;;1.80;0.70;;;;;;;15.11;52.76;97779.65;105946;1251;60497;-75
2023/10/28 06:57:45;;;;;;;2.80;0.50;;;;;;;15.13;52.91;97780.83;105937;1251;63984;-75
2023/10/28 07:00:16;;;;;;;3.40;0.40;;;;;;;15.14;53.07;97798.70;106135;1251;60366;-75
2023/10/28 07:02:43;;;;;;;0.50;0.30;;;;;;;15.13;53.07;97807.86;105802;1251;60640;-75
2023/10/28 07:05:10;;;;;;;2.50;0.50;;;;;;;15.10;53.25;97816.32;105977;1251;65005;-75
2023/10/28 07:07:38;;;;;;;3.20;0.50;;;;;;;15.08;53.37;97802.27;106012;1254;60546;-77
2023/10/28 07:10:05;;;;;;;5.10;0.50;;;;;;;15.06;53.34;97806.48;106041;1254;64147;-77
2023/10/28 07:12:32;;;;;;;2.10;0.60;;;;;;;15.03;53.13;97818.80;106065;1251;60501;-77
2023/10/28 07:15:03;;;;;;;2.10;0.50;;;;;;;15.00;53.33;97813.59;106009;1251;60555;-77
2023/10/28 07:17:35;;;;;;;2.70;0.70;;;;;;;15.02;53.55;97814.84;105803;1251;64100;-77
2023/10/28 07:20:13;;;;;;;1.40;0.50;;;;;;;14.99;52.80;97852.23;105805;1257;60470;-78
2023/10/28 07:22:41;;;;;;;1.60;0.50;;;;;;;14.97;52.48;97841.08;105771;1257;66081;-79
2023/10/28 07:25:11;;;;;;;1.00;0.60;;;;;;;14.98;52.70;97831.35;105905;1257;60537;-79
2023/10/28 07:27:38;;;;;;;3.40;0.60;;;;;;;14.99;52.86;97841.12;105890;1251;60481;-78
2023/10/28 07:30:06;;;;;;;1.90;0.40;;;;;;;14.97;52.57;97845.66;104984;1254;1351338;-78
2023/10/28 07:32:36;;;;;;;2.10;0.50;;;;;;;14.97;52.55;97844.07;105873;1251;61011;-79
2023/10/28 07:35:08;;;;;;;0.60;0.40;;;;;;;14.99;52.43;97850.90;105843;1251;65814;-77
2023/10/28 07:37:35;;;;;;;3.20;0.40;;;;;;;14.98;52.14;97858.02;105639;1251;60572;-79
2023/10/28 07:40:03;;;;;;;1.60;0.50;;;;;;;14.96;52.22;97869.75;105990;1251;60472;-78
2023/10/28 07:42:34;;;;;;;2.30;0.40;;;;;;;14.89;52.06;97874.41;106026;1256;65149;-76
2023/10/28 07:45:01;;;;;;;1.30;0.50;;;;;;;14.82;52.08;97892.70;105904;1251;60428;-80
2023/10/28 07:47:33;;;;;;;0.70;0.50;;;;;;;14.75;52.06;97891.20;105629;1258;64021;-76
2023/10/28 07:50:14;;;;;;;2.60;0.40;;;;;;;14.69;52.32;97889.84;106016;1257;60463;-77
2023/10/28 07:52:40;;;;;;;1.10;0.40;;;;;;;14.67;52.15;97888.16;105957;1251;60453;-78
2023/10/28 07:55:08;;;;;;;2.50;0.60;;;;;;;14.68;52.16;97882.20;105999;1251;64977;-78
2023/10/28 07:57:34;;;;;;;2.70;0.50;;;;;;;14.70;52.06;97882.55;105883;1251;60462;-77
2023/10/28 08:00:05;;;;;;;2.40;0.40;;;;;;;14.70;51.91;97888.90;105798;1257;64662;-76
2023/10/28 08:02:44;;;;;;;2.30;0.60;;;;;;;14.67;51.99;97904.98;105972;1251;60995;-76
2023/10/28 08:05:14;;;;;;;1.00;0.50;;;;;;;14.68;52.22;97905.63;106140;1253;60447;-76
2023/10/28 08:07:41;;;;;;;1.00;0.50;;;;;;;14.69;52.36;97914.90;105994;1251;64988;-76
2023/10/28 08:10:08;;;;;;;1.80;0.50;;;;;;;14.69;52.15;97924.06;105987;1254;60468;-79
2023/10/28 08:12:35;;;;;;;2.40;0.60;;;;;;;14.71;52.12;97927.36;105981;1254;64095;-79
2023/10/28 08:15:03;;;;;;;5.50;0.60;;;;;;;14.74;51.95;97922.31;105962;1251;60479;-77
2023/10/28 08:17:32;;;;;;;1.30;0.70;;;;;;;14.80;52.09;97913.80;106006;1254;60383;-76
2023/10/28 08:19:59;;;;;;;1.80;0.80;;;;;;;14.92;52.13;97908.27;106000;1254;65270;-76
2023/10/28 08:22:26;;;;;;;3.00;0.60;;;;;;;15.05;51.91;97924.96;106033;1254;60511;-77
2023/10/28 08:24:53;;;;;;;3.40;1.10;;;;;;;15.16;51.30;97947.23;106057;1251;64066;-76
2023/10/28 08:27:20;;;;;;;3.80;0.70;;;;;;;15.18;50.46;97964.85;106041;1252;60432;-77
2023/10/28 08:29:48;;;;;;;2.50;0.80;;;;;;;15.18;50.87;97940.76;105899;1250;61043;-76
2023/10/28 08:32:18;;;;;;;0.70;0.50;;;;;;;15.23;50.85;97944.98;106030;1251;63989;-78
2023/10/28 08:34:44;;;;;;;2.20;0.70;;;;;;;15.27;50.55;97958.11;105843;1251;60497;-78
2023/10/28 08:37:13;;;;;;;0.80;0.60;;;;;;;15.29;50.72;97971.27;105941;1251;64032;-75
2023/10/28 08:39:41;;;;;;;7.20;0.60;;;;;;;15.28;50.71;97980.04;105926;1255;60452;-79
2023/10/28 08:42:08;;;;;;;3.30;1.10;;;;;;;15.25;50.88;97973.23;105954;1251;60527;-76
2023/10/28 08:44:35;;;;;;;1.70;0.60;;;;;;;15.23;50.87;97985.23;105937;1251;65324;-75
2023/10/28 08:47:06;;;;;;;0.60;0.50;;;;;;;15.20;50.79;97982.84;105837;1251;60325;-77
2023/10/28 08:49:36;;;;;;;1.40;0.70;;;;;;;15.17;51.10;97990.67;105903;1253;63893;-79
2023/10/28 08:52:04;;;;;;;4.20;0.60;;;;;;;15.14;50.99;97996.88;105931;1251;60562;-76
2023/10/28 08:54:31;;;;;;;0.80;0.50;;;;;;;15.10;51.01;98012.36;105961;1251;60482;-76
2023/10/28 08:56:58;;;;;;;0.90;0.60;;;;;;;15.07;50.91;98026.31;105790;1257;65029;-77
2023/10/28 08:59:26;;;;;;;3.20;0.70;;;;;;;15.00;50.83;98013.52;105888;1251;60562;-77
2023/10/28 09:01:56;;;;;;;1.40;0.70;;;;;;;14.98;51.14;98004.62;106159;1254;63891;-77
2023/10/28 09:04:23;;;;;;;5.70;0.80;;;;;;;15.00;51.57;98016.11;105863;1251;60450;-78
2023/10/28 09:06:53;;;;;;;1.00;0.70;;;;;;;15.01;51.53;98028.20;105999;1251;60481;-76
2023/10/28 09:09:21;;;;;;;1.10;0.50;;;;;;;15.00;51.59;98037.21;105955;1254;65880;-78
2023/10/28 09:11:51;;;;;;;1.00;0.50;;;;;;;14.97;51.40;98024.25;105973;1251;60577;-78
2023/10/28 09:14:18;;;;;;;4.60;0.80;;;;;;;14.95;51.45;98035.67;106032;1251;64795;-77
2023/10/28 09:16:45;;;;;;;4.30;0.60;;;;;;;14.92;51.49;98051.85;105931;1254;60364;-79
2023/10/28 09:19:21;;;;;;;3.50;0.60;;;;;;;14.87;51.69;98054.55;106061;1251;60488;-81
2023/10/28 09:21:48;;;;;;;2.00;0.80;;;;;;;14.85;52.13;98064.11;105743;1257;65085;-78
2023/10/28 09:24:16;;;;;;;0.60;0.60;;;;;;;14.84;52.32;98078.59;106031;1254;60411;-77
2023/10/28 09:26:43;;;;;;;1.00;0.80;;;;;;;14.83;52.43;98078.76;105999;1251;64674;-77
2023/10/28 09:29:10;;;;;;;2.50;0.90;;;;;;;14.82;52.54;98084.52;105774;1254;60498;-75
2023/10/28 09:31:37;;;;;;;1.90;1.30;;;;;;;14.81;52.74;98082.32;105782;1257;60587;-77
2023/10/28 09:34:05;;;;;;;0.90;0.80;;;;;;;14.79;52.92;98095.53;105917;1251;63984;-76
2023/10/28 09:36:32;;;;;;;2.30;1.00;;;;;;;14.79;53.13;98093.00;105961;1251;60590;-79
2023/10/28 09:38:59;;;;;;;1.90;0.80;;;;;;;14.79;53.30;98099.99;105964;1251;63931;-76
2023/10/28 09:41:34;;;;;;;2.70;0.70;;;;;;;14.79;53.14;98111.16;105808;1251;60606;-77
2023/10/28 09:44:07;;;;;;;3.10;0.90;;;;;;;14.78;53.33;98117.98;105726;1260;60473;-77
2023/10/28 09:47:03;;;;;;;2.20;1.00;;;;;;;14.77;53.41;98122.92;105783;1254;64893;-78
2023/10/28 09:49:32;;;;;;;2.40;0.90;;;;;;;14.73;53.35;98131.58;105938;1251;60319;-78
2023/10/28 09:52:07;;;;;;;2.90;0.90;;;;;;;14.70;53.64;98125.77;105888;1257;63833;-76
2023/10/28 09:54:36;;;;;;;1.00;0.80;;;;;;;14.69;53.74;98140.29;106047;1251;60495;-77
2023/10/28 09:57:10;;;;;;;2.00;0.90;;;;;;;14.71;53.59;98158.84;105996;1251;60385;-76
2023/10/28 09:59:39;;;;;;;2.60;0.80;;;;;;;14.76;53.51;98167.60;106051;1251;66110;-76
2023/10/28 10:02:27;;;;;;;4.80;1.20;;;;;;;14.79;53.36;98167.70;105624;1259;60364;-76
2023/10/28 10:04:58;;;;;;;1.70;1.20;;;;;;;14.82;53.54;98169.08;105710;1254;64000;-78
2023/10/28 10:07:25;;;;;;;2.50;1.00;;;;;;;14.82;53.49;98175.95;105801;1250;60520;-76
2023/10/28 10:09:52;;;;;;;3.40;1.10;;;;;;;14.79;53.62;98179.27;105891;1251;60565;-77
2023/10/28 10:12:31;;;;;;;1.40;1.10;;;;;;;14.77;53.77;98183.02;105855;1250;65167;-79
2023/10/28 10:15:19;;;;;;;0.90;0.80;;;;;;;14.74;53.74;98191.50;105522;1254;61061;-75
2023/10/28 10:17:51;;;;;;;3.30;0.70;;;;;;;14.73;53.69;98199.48;105625;1254;64090;-75
2023/10/28 10:20:28;;;;;;;5.60;1.10;;;;;;;14.72;53.52;98212.85;105570;1254;60544;-76
2023/10/28 10:23:00;;;;;;;0.80;0.70;;;;;;;14.70;53.39;98221.64;105669;1258;60638;-78
2023/10/28 10:25:32;;;;;;;4.20;1.00;;;;;;;14.68;53.24;98225.48;105327;1260;65193;-78
2023/10/28 10:28:12;;;;;;;1.50;1.00;;;;;;;14.67;53.34;98224.73;105285;1257;60572;-78
2023/10/28 10:30:39;;;;;;;1.90;1.20;;;;;;;14.66;53.56;98233.88;105402;1254;62707;-79
2023/10/28 10:33:06;;;;;;;1.70;1.20;;;;;;;14.64;53.52;98240.29;105599;1255;60505;-77
2023/10/28 10:35:33;;;;;;;1.30;1.20;;;;;;;14.61;53.44;98248.34;105595;1254;59434;-78
2023/10/28 10:38:10;;;;;;;2.20;1.30;;;;;;;14.59;53.55;98240.04;105560;1254;64980;-77
2023/10/28 10:40:50;;;;;;;1.70;1.00;;;;;;;14.62;53.77;98249.86;105605;1260;60539;-79
2023/10/28 10:43:20;;;;;;;1.40;1.20;;;;;;;14.66;53.89;98256.20;105413;1254;64259;-82
2023/10/28 10:45:48;;;;;;;2.50;1.10;;;;;;;14.70;53.61;98263.86;105456;1258;60436;-77
2023/10/28 10:48:16;;;;;;;2.50;0.90;;;;;;;14.72;52.99;98268.23;105637;1254;60604;-79
2023/10/28 10:50:43;;;;;;;1.50;1.10;;;;;;;14.71;53.23;98269.51;105594;1257;64908;-82
2023/10/28 10:53:11;;;;;;;1.50;1.00;;;;;;;14.71;53.37;98263.74;105829;1251;60933;-82
2023/10/28 10:55:40;;;;;;;1.40;1.00;;;;;;;14.73;53.29;98263.67;105995;1257;63855;-78
2023/10/28 10:58:07;;;;;;;1.40;1.00;;;;;;;14.76;52.93;98291.60;106049;1251;60538;-81
2023/10/28 11:00:34;;;;;;;1.90;1.20;;;;;;;14.78;53.00;98282.79;105999;1251;60475;-80
2023/10/28 11:03:03;;;;;;;2.30;1.00;;;;;;;14.81;53.04;98284.14;106254;1254;65270;-76
2023/10/28 11:05:31;;;;;;;1.60;0.90;;;;;;;14.87;52.95;98276.77;105737;1251;62113;-75
2023/10/28 11:07:58;;;;;;;1.20;0.90;;;;;;;15.00;52.97;98269.95;106065;1250;64161;-76
2023/10/28 11:10:25;;;;;;;3.40;1.00;;;;;;;15.20;52.70;98270.69;105995;1251;60389;-78
2023/10/28 11:12:52;;;;;;;1.40;1.00;;;;;;;15.37;52.25;98282.65;105681;1251;60526;-76
2023/10/28 11:20:21;;;;;;;1.60;1.00;;;;;;;15.58;51.41;98301.17;105615;1257;60733;-73
2023/10/28 11:22:49;;;;;;;2.50;1.10;;;;;;;15.64;51.11;98310.86;105815;1263;72956;-76
2023/10/28 11:25:17;;;;;;;3.70;0.80;;;;;;;15.66;50.73;98318.00;106815;1257;60358;-77
2023/10/28 11:27:46;;;;;;;1.40;0.90;;;;;;;15.67;50.73;98316.84;106283;1261;60459;-75
2023/10/28 11:30:13;;;;;;;1.10;1.00;;;;;;;15.64;50.66;98315.48;105481;1258;64261;-77